createdAt,value
2022-12-18T00:01:25.183Z,14.60
2022-12-18T00:03:53.977Z,14.10
2022-12-18T00:06:21.990Z,14.73
2022-12-18T00:08:49.266Z,14.50
2022-12-18T00:11:21.357Z,14.73
2022-12-18T00:13:48.953Z,14.37
2022-12-18T00:16:19.460Z,15.70
2022-12-18T00:18:46.368Z,14.37
2022-12-18T00:21:14.247Z,14.53
2022-12-18T00:23:43.347Z,16.03
2022-12-18T00:26:16.375Z,14.97
2022-12-18T00:28:44.538Z,16.07
2022-12-18T00:31:14.864Z,16.50
2022-12-18T00:33:42.239Z,17.17
2022-12-18T00:36:13.080Z,16.53
2022-12-18T00:38:40.414Z,17.07
2022-12-18T00:41:08.399Z,16.27
2022-12-18T00:43:37.778Z,15.47
2022-12-18T00:46:05.623Z,15.97
2022-12-18T00:48:33.102Z,14.00
2022-12-18T00:50:59.859Z,14.83
2022-12-18T00:53:26.732Z,15.10
2022-12-18T00:55:53.481Z,15.50
2022-12-18T00:58:20.263Z,16.50
2022-12-18T01:00:47.208Z,15.67
2022-12-18T01:03:15.478Z,16.63
2022-12-18T01:05:44.425Z,16.30
2022-12-18T01:08:12.005Z,16.67
2022-12-18T01:10:42.350Z,17.47
2022-12-18T01:13:09.496Z,17.67
2022-12-18T01:15:36.972Z,18.13
2022-12-18T01:18:03.839Z,19.40
2022-12-18T01:20:33.973Z,19.77
2022-12-18T01:23:00.735Z,19.83
2022-12-18T01:25:27.513Z,19.60
2022-12-18T01:27:54.281Z,19.50
2022-12-18T01:30:21.062Z,19.87
2022-12-18T01:32:47.828Z,20.07
2022-12-18T01:35:14.585Z,20.87
2022-12-18T01:37:41.356Z,21.60
2022-12-18T01:40:08.901Z,22.27
2022-12-18T01:42:35.649Z,21.70
2022-12-18T01:45:09.878Z,22.80
2022-12-18T01:47:42.383Z,22.70
2022-12-18T01:50:12.699Z,22.57
2022-12-18T01:52:41.520Z,20.83
2022-12-18T01:55:09.654Z,22.07
2022-12-18T01:57:37.863Z,23.50
2022-12-18T02:00:15.205Z,20.93
2022-12-18T02:02:46.597Z,21.90
2022-12-18T02:10:05.839Z,21.47
2022-12-18T02:13:09.744Z,22.03
2022-12-18T02:16:01.151Z,21.63
2022-12-18T02:18:42.465Z,23.50
2022-12-18T02:21:26.078Z,21.47
2022-12-18T02:23:55.689Z,23.87
2022-12-18T02:26:39.007Z,22.70
2022-12-18T02:29:14.314Z,24.17
2022-12-18T02:32:09.159Z,23.80
2022-12-18T02:34:40.836Z,22.97
2022-12-18T02:37:16.339Z,22.17
2022-12-18T02:39:45.667Z,21.60
2022-12-18T02:42:14.375Z,20.43
2022-12-18T02:44:52.503Z,20.07
2022-12-18T02:47:28.648Z,22.07
2022-12-18T02:50:25.159Z,21.83
2022-12-18T02:53:07.328Z,17.80
2022-12-18T02:56:14.851Z,22.67
2022-12-18T02:58:53.574Z,20.97
2022-12-18T03:02:11.297Z,22.37
2022-12-18T03:04:48.473Z,20.97
2022-12-18T03:07:22.566Z,22.43
2022-12-18T03:09:51.713Z,22.33
2022-12-18T03:12:29.437Z,22.90
2022-12-18T03:15:04.589Z,22.03
2022-12-18T03:17:33.748Z,22.97
2022-12-18T03:20:08.430Z,22.43
2022-12-18T03:22:38.429Z,21.17
2022-12-18T03:25:08.756Z,22.77
2022-12-18T03:27:41.736Z,22.00
2022-12-18T03:30:14.228Z,21.83
2022-12-18T03:32:47.504Z,24.30
2022-12-18T03:35:23.162Z,22.53
2022-12-18T03:37:50.511Z,21.97
2022-12-18T03:40:18.264Z,22.50
2022-12-18T03:42:53.725Z,23.03
2022-12-18T03:45:33.577Z,21.93
2022-12-18T03:48:04.062Z,21.20
2022-12-18T03:50:57.149Z,22.60
2022-12-18T03:53:37.071Z,19.30
2022-12-18T03:56:05.635Z,21.97
2022-12-18T03:58:40.051Z,19.87
2022-12-18T04:01:18.712Z,19.00
2022-12-18T04:03:50.319Z,17.50
2022-12-18T04:06:19.795Z,17.10
2022-12-18T04:08:47.955Z,18.43
2022-12-18T04:11:18.244Z,16.20
2022-12-18T04:13:46.453Z,16.60
2022-12-18T04:16:21.460Z,16.73
2022-12-18T04:18:52.118Z,17.20
2022-12-18T04:21:20.673Z,16.77
2022-12-18T04:23:49.005Z,15.50
2022-12-18T04:26:18.311Z,16.30
2022-12-18T04:29:05.009Z,16.10
2022-12-18T04:31:32.183Z,17.43
2022-12-18T04:33:59.079Z,17.03
2022-12-18T04:36:29.069Z,16.50
2022-12-18T04:38:56.958Z,16.87
2022-12-18T04:41:23.847Z,16.60
2022-12-18T04:43:52.722Z,16.70
2022-12-18T04:46:19.542Z,16.13
2022-12-18T04:48:47.880Z,17.77
2022-12-18T04:51:14.784Z,18.73
2022-12-18T04:53:41.912Z,17.47
2022-12-18T04:56:14.269Z,19.23
2022-12-18T04:58:42.514Z,19.17
2022-12-18T05:01:10.545Z,18.70
2022-12-18T05:03:38.534Z,19.00
2022-12-18T05:06:06.645Z,18.87
2022-12-18T05:08:33.503Z,20.07
2022-12-18T05:11:05.757Z,19.80
2022-12-18T05:13:33.458Z,21.17
2022-12-18T05:16:00.427Z,19.97
2022-12-18T05:18:27.802Z,19.83
2022-12-18T05:20:55.073Z,21.00
2022-12-18T05:23:23.643Z,19.77
2022-12-18T05:26:00.035Z,21.17
2022-12-18T05:28:28.320Z,21.17
2022-12-18T05:30:58.336Z,20.07
2022-12-18T05:33:27.882Z,19.20
2022-12-18T05:35:56.635Z,20.13
2022-12-18T05:38:25.406Z,19.00
2022-12-18T05:40:53.104Z,21.07
2022-12-18T05:43:21.673Z,17.33
2022-12-18T05:45:49.713Z,19.83
2022-12-18T05:48:16.989Z,19.43
2022-12-18T05:50:48.578Z,19.97
2022-12-18T05:53:17.789Z,21.60
2022-12-18T05:55:45.259Z,18.53
2022-12-18T05:58:13.627Z,19.17
2022-12-18T06:00:46.327Z,19.70
2022-12-18T06:03:14.350Z,18.67
2022-12-18T06:05:43.622Z,18.37
2022-12-18T06:08:10.865Z,20.80
2022-12-18T06:10:38.421Z,18.77
2022-12-18T06:13:07.240Z,17.50
2022-12-18T06:15:36.784Z,18.50
2022-12-18T06:18:03.685Z,17.13
2022-12-18T06:20:34.247Z,17.30
2022-12-18T06:23:01.354Z,19.13
2022-12-18T06:25:28.190Z,17.27
2022-12-18T06:27:54.984Z,17.33
2022-12-18T06:30:21.968Z,17.50
2022-12-18T06:32:56.561Z,17.10
2022-12-18T06:35:24.471Z,16.87
2022-12-18T06:37:51.727Z,17.10
2022-12-18T06:40:19.130Z,15.50
2022-12-18T06:42:45.883Z,16.03
2022-12-18T06:45:15.747Z,17.57
2022-12-18T06:47:42.492Z,18.50
2022-12-18T06:50:09.346Z,17.47
2022-12-18T06:52:36.075Z,15.80
2022-12-18T06:55:02.894Z,16.07
2022-12-18T06:57:29.664Z,14.50
2022-12-18T06:59:56.386Z,15.67
2022-12-18T07:02:23.271Z,14.20
2022-12-18T07:04:53.262Z,13.60
2022-12-18T07:07:20.013Z,13.30
2022-12-18T07:09:46.959Z,13.07
2022-12-18T07:12:13.688Z,14.57
2022-12-18T07:14:40.430Z,16.13
2022-12-18T07:17:07.243Z,13.87
2022-12-18T07:19:34.860Z,15.17
2022-12-18T07:22:01.944Z,17.10
2022-12-18T07:24:29.615Z,16.40
2022-12-18T07:26:56.319Z,15.73
2022-12-18T07:29:23.075Z,16.70
2022-12-18T07:31:50.107Z,16.93
2022-12-18T07:34:17.030Z,18.87
2022-12-18T07:36:44.126Z,17.33
2022-12-18T07:39:12.695Z,17.10
2022-12-18T07:41:45.209Z,15.40
2022-12-18T07:44:14.000Z,15.17
2022-12-18T07:46:40.725Z,15.73
2022-12-18T07:49:07.696Z,16.97
2022-12-18T07:51:34.406Z,16.33
2022-12-18T07:54:01.187Z,14.93
2022-12-18T07:56:29.538Z,18.10
2022-12-18T07:58:57.988Z,17.47
2022-12-18T08:01:25.443Z,17.50
2022-12-18T08:03:52.702Z,16.90
2022-12-18T08:06:22.608Z,19.20
2022-12-18T08:08:55.351Z,17.77
2022-12-18T08:11:23.779Z,17.80
2022-12-18T08:13:50.852Z,18.67
2022-12-18T08:16:18.731Z,15.93
2022-12-18T08:18:46.595Z,18.83
2022-12-18T08:21:23.783Z,16.03
2022-12-18T08:23:52.414Z,16.53
2022-12-18T08:26:20.182Z,17.80
2022-12-18T08:28:47.841Z,16.00
2022-12-18T08:31:15.127Z,17.07
2022-12-18T08:33:43.285Z,12.87
2022-12-18T08:36:10.828Z,15.77
2022-12-18T08:38:37.818Z,14.23
2022-12-18T08:41:07.206Z,14.23
2022-12-18T08:43:53.004Z,16.37
2022-12-18T08:46:21.057Z,15.70
2022-12-18T08:48:48.371Z,16.47
2022-12-18T08:51:17.944Z,15.70
2022-12-18T08:53:45.524Z,16.63
2022-12-18T08:56:13.148Z,15.97
2022-12-18T08:58:41.544Z,16.90
2022-12-18T09:01:11.108Z,16.33
2022-12-18T09:03:39.070Z,17.37
2022-12-18T09:06:07.050Z,15.67
2022-12-18T09:08:39.966Z,15.57
2022-12-18T09:11:25.037Z,15.53
2022-12-18T09:13:52.181Z,14.23
2022-12-18T09:16:20.684Z,14.13
2022-12-18T09:18:48.282Z,15.70
2022-12-18T09:21:18.417Z,13.97
2022-12-18T09:23:49.654Z,15.13
2022-12-18T09:26:16.470Z,14.10
2022-12-18T09:28:43.836Z,13.67
2022-12-18T09:31:16.227Z,19.43
2022-12-18T09:33:43.220Z,13.67
2022-12-18T09:36:17.824Z,15.30
2022-12-18T09:38:45.011Z,14.07
2022-12-18T09:41:33.072Z,15.03
2022-12-18T09:44:24.975Z,13.63
2022-12-18T09:47:17.954Z,16.13
2022-12-18T09:49:55.681Z,14.97
2022-12-18T09:52:27.419Z,15.83
2022-12-18T09:55:11.709Z,15.93
2022-12-18T09:57:43.107Z,13.50
2022-12-18T10:00:25.075Z,12.40
2022-12-18T10:03:09.704Z,13.63
2022-12-18T10:05:46.628Z,13.67
2022-12-18T10:08:51.909Z,15.03
2022-12-18T10:11:32.789Z,14.83
2022-12-18T10:14:16.895Z,14.17
2022-12-18T10:16:50.414Z,14.97
2022-12-18T10:19:41.622Z,14.53
2022-12-18T10:22:11.655Z,15.90
2022-12-18T10:25:16.176Z,14.90
2022-12-18T10:27:43.061Z,16.20
2022-12-18T10:30:18.523Z,18.53
2022-12-18T10:32:45.497Z,14.70
2022-12-18T10:35:24.459Z,16.97
2022-12-18T10:38:27.802Z,24.20
2022-12-18T10:41:03.869Z,17.37
2022-12-18T10:43:36.020Z,16.33
2022-12-18T10:46:08.807Z,14.43
2022-12-18T10:48:53.192Z,13.37
2022-12-18T10:51:24.768Z,15.13
2022-12-18T10:54:06.377Z,16.53
2022-12-18T10:56:36.665Z,13.93
2022-12-18T10:59:09.329Z,17.23
2022-12-18T11:01:57.310Z,15.30
2022-12-18T11:04:30.134Z,14.27
2022-12-18T11:07:11.602Z,14.83
2022-12-18T11:09:40.732Z,14.03
2022-12-18T11:12:19.253Z,14.23
2022-12-18T11:14:51.891Z,15.20
2022-12-18T11:17:34.645Z,15.77
2022-12-18T11:20:33.199Z,14.37
2022-12-18T11:23:13.707Z,15.13
2022-12-18T11:25:50.678Z,12.67
2022-12-18T11:28:46.238Z,13.90
2022-12-18T11:31:15.990Z,18.03
2022-12-18T11:34:11.943Z,14.70
2022-12-18T11:36:40.697Z,15.40
2022-12-18T11:39:18.265Z,15.47
2022-12-18T11:42:12.374Z,13.90
2022-12-18T11:45:14.171Z,15.53
2022-12-18T11:47:59.062Z,15.77
2022-12-18T11:50:38.014Z,14.10
2022-12-18T11:53:06.353Z,15.50
2022-12-18T11:56:04.296Z,14.97
2022-12-18T11:58:54.732Z,22.23
2022-12-18T12:01:36.513Z,15.70
2022-12-18T12:04:07.272Z,14.63
2022-12-18T12:07:00.025Z,15.30
2022-12-18T12:09:46.172Z,14.03
2022-12-18T12:12:49.277Z,14.93
2022-12-18T12:15:22.163Z,14.23
2022-12-18T12:18:09.617Z,14.43
2022-12-18T12:20:53.519Z,15.57
2022-12-18T12:23:39.994Z,15.80
2022-12-18T12:26:18.465Z,16.17
2022-12-18T12:29:14.359Z,14.30
2022-12-18T12:31:56.514Z,15.33
2022-12-18T12:34:30.717Z,14.90
2022-12-18T12:41:51.045Z,16.10
2022-12-18T12:44:24.474Z,14.17
2022-12-18T12:46:55.864Z,13.67
2022-12-18T12:49:28.585Z,14.53
2022-12-18T12:52:17.713Z,12.93
2022-12-18T12:54:45.766Z,12.60
2022-12-18T12:57:37.864Z,12.97
2022-12-18T13:00:09.038Z,12.50
2022-12-18T13:02:58.072Z,13.37
2022-12-18T13:05:35.472Z,14.20
2022-12-18T13:08:07.142Z,12.53
2022-12-18T13:10:40.793Z,13.77
2022-12-18T13:13:11.047Z,13.67
2022-12-18T13:15:46.876Z,13.70
2022-12-18T13:18:25.572Z,14.47
2022-12-18T13:20:58.554Z,16.20
2022-12-18T13:23:32.099Z,15.73
2022-12-18T13:26:11.183Z,28.97
2022-12-18T13:28:47.368Z,15.43
2022-12-18T13:31:14.391Z,17.03
2022-12-18T13:34:09.478Z,18.63
2022-12-18T13:36:33.576Z,15.60
2022-12-18T13:39:29.988Z,21.13
2022-12-18T13:42:05.867Z,19.70
2022-12-18T13:44:41.098Z,18.57
2022-12-18T13:47:27.322Z,19.83
2022-12-18T13:49:54.263Z,19.20
2022-12-18T13:52:34.662Z,20.83
2022-12-18T13:55:04.407Z,21.43
2022-12-18T13:57:34.769Z,21.40
2022-12-18T14:00:23.017Z,24.20
2022-12-18T14:02:50.428Z,23.77
2022-12-18T14:05:36.130Z,23.20
2022-12-18T14:08:11.003Z,24.17
2022-12-18T14:10:49.270Z,18.80
2022-12-18T14:13:22.459Z,22.73
2022-12-18T14:15:51.307Z,23.23
2022-12-18T14:18:25.775Z,28.57
2022-12-18T14:21:00.500Z,23.30
2022-12-18T14:23:33.909Z,22.03
2022-12-18T14:26:06.053Z,23.23
2022-12-18T14:28:33.441Z,22.77
2022-12-18T14:31:00.629Z,21.80
2022-12-18T14:33:29.548Z,19.67
2022-12-18T14:36:05.246Z,35.10
2022-12-18T14:38:37.529Z,17.90
2022-12-18T14:41:11.029Z,17.67
2022-12-18T14:43:40.560Z,16.20
2022-12-18T14:46:37.331Z,15.23
2022-12-18T14:49:18.969Z,17.80
2022-12-18T14:51:54.697Z,15.37
2022-12-18T14:54:24.246Z,14.47
2022-12-18T14:56:58.911Z,14.67
2022-12-18T14:59:27.771Z,16.37
2022-12-18T15:02:09.814Z,14.30
2022-12-18T15:04:44.212Z,15.50
2022-12-18T15:07:17.387Z,16.30
2022-12-18T15:10:04.804Z,20.03
2022-12-18T15:12:35.861Z,15.13
2022-12-18T15:15:04.226Z,14.20
2022-12-18T15:17:31.143Z,16.87
2022-12-18T15:20:11.656Z,14.83
2022-12-18T15:22:38.629Z,15.20
2022-12-18T15:25:35.121Z,15.30
2022-12-18T15:28:02.026Z,14.03
2022-12-18T15:30:29.250Z,13.33
2022-12-18T15:33:26.039Z,13.30
2022-12-18T15:36:00.809Z,13.83
2022-12-18T15:38:28.124Z,13.37
2022-12-18T15:40:55.343Z,12.73
2022-12-18T15:43:35.153Z,12.97
2022-12-18T15:46:05.960Z,13.60
2022-12-18T15:48:40.092Z,12.73
2022-12-18T15:51:14.636Z,12.13
2022-12-18T15:53:41.943Z,14.30
2022-12-18T15:56:32.162Z,13.60
2022-12-18T15:58:59.554Z,13.70
2022-12-18T16:01:28.928Z,13.03
2022-12-18T16:03:56.232Z,14.23
2022-12-18T16:06:24.341Z,12.97
2022-12-18T16:08:51.317Z,13.30
2022-12-18T16:11:39.312Z,12.93
2022-12-18T16:14:23.769Z,12.30
2022-12-18T16:16:54.624Z,13.57
2022-12-18T16:19:24.848Z,13.83
2022-12-18T16:21:54.050Z,13.03
2022-12-18T16:24:23.566Z,13.63
2022-12-18T16:26:54.215Z,14.40
2022-12-18T16:29:25.691Z,14.83
2022-12-18T16:31:53.087Z,15.47
2022-12-18T16:34:29.305Z,13.83
2022-12-18T16:37:05.580Z,13.20
2022-12-18T16:39:35.035Z,14.00
2022-12-18T16:42:13.466Z,14.03
2022-12-18T16:44:41.275Z,14.17
2022-12-18T16:47:08.757Z,13.67
2022-12-18T16:49:37.155Z,14.83
2022-12-18T16:52:05.640Z,14.20
2022-12-18T16:54:33.939Z,13.87
2022-12-18T16:57:01.342Z,13.77
2022-12-18T16:59:29.220Z,14.60
2022-12-18T17:01:57.432Z,12.73
2022-12-18T17:04:24.660Z,13.33
2022-12-18T17:06:54.437Z,13.20
2022-12-18T17:09:31.086Z,13.57
2022-12-18T17:11:57.956Z,11.83
2022-12-18T17:14:25.334Z,13.27
2022-12-18T17:17:19.604Z,12.83
2022-12-18T17:19:40.603Z,13.47
2022-12-18T17:22:08.264Z,13.10
2022-12-18T17:24:35.783Z,14.00
2022-12-18T17:27:03.971Z,14.27
2022-12-18T17:29:30.928Z,14.50
2022-12-18T17:31:58.729Z,14.67
2022-12-18T17:34:27.826Z,13.73
2022-12-18T17:36:55.144Z,13.90
2022-12-18T17:39:22.532Z,14.67
2022-12-18T17:41:49.618Z,16.23
2022-12-18T17:44:17.276Z,15.03
2022-12-18T17:46:44.520Z,15.73
2022-12-18T17:49:11.942Z,15.07
2022-12-18T17:51:39.663Z,15.07
2022-12-18T17:54:06.688Z,14.10
2022-12-18T17:56:33.760Z,15.63
2022-12-18T17:59:01.015Z,15.03
2022-12-18T18:01:28.438Z,15.33
2022-12-18T18:04:00.284Z,16.13
2022-12-18T18:06:27.688Z,17.53
2022-12-18T18:08:54.884Z,16.07
2022-12-18T18:11:42.386Z,17.23
2022-12-18T18:14:18.640Z,15.67
2022-12-18T18:16:48.169Z,18.33
2022-12-18T18:19:21.411Z,16.80
2022-12-18T18:21:49.824Z,19.40
2022-12-18T18:24:20.665Z,16.97
2022-12-18T18:26:47.737Z,18.43
2022-12-18T18:29:20.449Z,18.63
2022-12-18T18:31:48.427Z,18.87
2022-12-18T18:34:27.357Z,16.63
2022-12-18T18:36:54.237Z,18.37
2022-12-18T18:39:21.210Z,20.07
2022-12-18T18:41:48.837Z,22.60
2022-12-18T18:44:16.721Z,20.47
2022-12-18T18:46:44.668Z,19.37
2022-12-18T18:49:13.651Z,19.87
2022-12-18T18:51:41.417Z,20.67
2022-12-18T18:54:08.664Z,19.43
2022-12-18T18:59:24.435Z,20.43
2022-12-18T19:02:00.127Z,19.23
2022-12-18T19:04:32.074Z,20.77
2022-12-18T19:06:59.017Z,19.37
2022-12-18T19:09:26.408Z,19.70
2022-12-18T19:12:12.196Z,18.30
2022-12-18T19:14:39.137Z,18.67
2022-12-18T19:17:06.046Z,19.50
2022-12-18T19:19:33.594Z,17.17
2022-12-18T19:22:00.596Z,19.77
2022-12-18T19:24:27.788Z,18.17
2022-12-18T19:26:54.865Z,17.23
2022-12-18T19:29:25.609Z,18.37
2022-12-18T19:31:52.664Z,17.40
2022-12-18T19:34:21.029Z,17.90
2022-12-18T19:36:47.984Z,17.60
2022-12-18T19:39:17.691Z,16.33
2022-12-18T19:41:46.725Z,18.03
2022-12-18T19:44:16.257Z,18.23
2022-12-18T19:46:46.018Z,18.03
2022-12-18T19:49:17.439Z,18.47
2022-12-18T19:51:45.585Z,18.13
2022-12-18T19:54:16.631Z,17.97
2022-12-18T19:56:45.624Z,18.23
2022-12-18T19:59:13.243Z,17.50
2022-12-18T20:01:40.652Z,16.70
2022-12-18T20:04:07.852Z,16.63
2022-12-18T20:06:54.382Z,16.80
2022-12-18T20:09:21.917Z,17.83
2022-12-18T20:11:50.067Z,19.27
2022-12-18T20:14:22.495Z,19.10
2022-12-18T20:16:52.094Z,19.93
2022-12-18T20:19:19.421Z,18.47
2022-12-18T20:21:46.549Z,18.53
2022-12-18T20:24:13.501Z,18.90
2022-12-18T20:26:40.672Z,19.03
2022-12-18T20:29:07.758Z,19.60
2022-12-18T20:31:34.671Z,16.53
2022-12-18T20:34:03.631Z,20.67
2022-12-18T20:36:34.117Z,18.43
2022-12-18T20:39:02.643Z,19.57
2022-12-18T20:41:37.295Z,19.73
2022-12-18T20:44:10.435Z,19.77
2022-12-18T20:46:56.333Z,20.37
2022-12-18T20:49:25.549Z,18.63
2022-12-18T20:51:57.612Z,20.07
2022-12-18T20:54:26.739Z,18.60
2022-12-18T20:56:53.591Z,19.57
2022-12-18T20:59:21.034Z,20.30
2022-12-18T21:01:49.438Z,19.90
2022-12-18T21:04:18.883Z,20.90
2022-12-18T21:06:53.328Z,18.77
2022-12-18T21:09:22.972Z,20.80
2022-12-18T21:12:08.884Z,20.00
2022-12-18T21:14:40.857Z,18.63
2022-12-18T21:17:07.758Z,20.70
2022-12-18T21:19:34.644Z,19.13
2022-12-18T21:22:01.898Z,21.17
2022-12-18T21:24:29.722Z,19.70
2022-12-18T21:27:01.859Z,17.90
2022-12-18T21:29:28.911Z,16.27
2022-12-18T21:31:56.079Z,17.90
2022-12-18T21:34:28.076Z,17.40
2022-12-18T21:36:56.530Z,19.40
2022-12-18T21:39:24.646Z,19.43
2022-12-18T21:42:10.576Z,16.87
2022-12-18T21:44:38.484Z,18.27
2022-12-18T21:47:22.387Z,16.83
2022-12-18T21:49:53.826Z,18.87
2022-12-18T21:52:31.347Z,19.10
2022-12-18T21:55:03.106Z,18.73
2022-12-18T21:57:35.261Z,17.73
2022-12-18T22:00:02.945Z,19.70
2022-12-18T22:02:39.012Z,18.53
2022-12-18T22:05:06.438Z,18.77
2022-12-18T22:07:33.890Z,17.77
2022-12-18T22:10:00.927Z,16.70
2022-12-18T22:12:43.275Z,15.70
2022-12-18T22:15:13.182Z,16.37
2022-12-18T22:17:48.200Z,15.13
2022-12-18T22:20:15.928Z,16.20
2022-12-18T22:22:42.763Z,16.23
2022-12-18T22:25:10.685Z,17.10
2022-12-18T22:27:37.973Z,16.73
2022-12-18T22:30:05.382Z,16.27
2022-12-18T22:32:35.629Z,16.17
2022-12-18T22:35:08.276Z,17.03
2022-12-18T22:37:37.372Z,17.60
2022-12-18T22:40:12.865Z,15.90
2022-12-18T22:42:40.652Z,16.73
2022-12-18T22:45:07.958Z,17.83
2022-12-18T22:47:34.837Z,16.70
2022-12-18T22:50:01.758Z,15.60
2022-12-18T22:52:28.658Z,15.93
2022-12-18T22:54:55.531Z,16.47
2022-12-18T22:57:23.535Z,15.00
2022-12-18T22:59:51.323Z,16.20
2022-12-18T23:02:19.130Z,15.40
2022-12-18T23:04:47.621Z,14.83
2022-12-18T23:07:15.006Z,15.63
2022-12-18T23:09:41.882Z,16.13
2022-12-18T23:12:14.852Z,17.87
2022-12-18T23:14:42.596Z,14.83
2022-12-18T23:17:09.462Z,15.37
2022-12-18T23:19:36.939Z,14.57
2022-12-18T23:22:08.594Z,16.50
2022-12-18T23:24:38.344Z,15.00
2022-12-18T23:27:05.707Z,16.83
2022-12-18T23:29:36.366Z,17.00
2022-12-18T23:32:03.281Z,16.43
2022-12-18T23:34:30.119Z,16.57
2022-12-18T23:36:57.511Z,16.80
2022-12-18T23:39:29.398Z,15.40
2022-12-18T23:41:59.161Z,15.73
2022-12-18T23:44:26.430Z,15.90
2022-12-18T23:46:54.347Z,16.43
2022-12-18T23:49:21.356Z,16.37
2022-12-18T23:51:49.038Z,14.93
2022-12-18T23:54:15.924Z,16.00
2022-12-18T23:56:43.055Z,15.67
2022-12-18T23:59:10.169Z,15.23
